createdAt,value
2023-05-18T00:02:15.979Z,1.63
2023-05-18T00:05:19.892Z,1.60
2023-05-18T00:08:22.937Z,1.10
2023-05-18T00:11:27.640Z,0.88
2023-05-18T00:14:31.050Z,1.33
2023-05-18T00:17:34.037Z,1.43
2023-05-18T00:20:37.658Z,1.02
2023-05-18T00:23:42.502Z,0.80
2023-05-18T00:26:48.398Z,1.55
2023-05-18T00:29:51.803Z,1.10
2023-05-18T00:32:55.085Z,1.40
2023-05-18T00:35:59.208Z,1.20
2023-05-18T00:42:07.059Z,1.02
2023-05-18T00:45:11.153Z,1.25
2023-05-18T00:48:14.633Z,0.93
2023-05-18T00:51:18.469Z,1.10
2023-05-18T00:54:21.722Z,1.27
2023-05-18T00:57:27.058Z,1.42
2023-05-18T01:00:30.520Z,1.00
2023-05-18T01:03:34.402Z,1.55
2023-05-18T01:06:37.635Z,1.20
2023-05-18T01:09:41.013Z,1.50
2023-05-18T01:12:51.335Z,1.57
2023-05-18T01:16:02.868Z,1.27
2023-05-18T01:19:18.106Z,1.25
2023-05-18T01:22:34.718Z,1.17
2023-05-18T01:25:48.433Z,1.85
2023-05-18T01:28:54.582Z,1.87
2023-05-18T01:31:58.796Z,1.30
2023-05-18T01:38:04.847Z,1.10
2023-05-18T01:41:15.883Z,1.35
2023-05-18T01:44:25.525Z,1.35
2023-05-18T01:47:50.821Z,1.35
2023-05-18T01:50:58.450Z,0.90
2023-05-18T01:54:06.908Z,1.67
2023-05-18T01:57:10.775Z,1.15
2023-05-18T02:00:16.796Z,1.83
2023-05-18T02:03:22.017Z,1.30
2023-05-18T02:06:25.311Z,1.02
2023-05-18T02:09:28.454Z,0.88
2023-05-18T02:12:31.553Z,1.08
2023-05-18T02:15:35.007Z,1.30
2023-05-18T02:18:40.167Z,1.20
2023-05-18T02:21:43.639Z,1.20
2023-05-18T02:24:47.278Z,1.60
2023-05-18T02:27:50.493Z,1.80
2023-05-18T02:31:18.935Z,1.10
2023-05-18T02:34:24.725Z,1.02
2023-05-18T02:37:28.632Z,1.13
2023-05-18T02:40:31.799Z,1.25
2023-05-18T02:43:34.864Z,1.40
2023-05-18T02:46:39.213Z,1.23
2023-05-18T02:49:42.385Z,1.10
2023-05-18T02:52:49.183Z,1.48
2023-05-18T02:55:56.890Z,1.50
2023-05-18T02:59:00.784Z,1.05
2023-05-18T03:02:05.944Z,1.63
2023-05-18T03:05:10.236Z,1.30
2023-05-18T03:11:17.196Z,1.20
2023-05-18T03:14:20.497Z,1.35
2023-05-18T03:17:24.880Z,1.67
2023-05-18T03:20:29.904Z,1.58
2023-05-18T03:23:33.030Z,1.50
2023-05-18T03:26:36.139Z,1.48
2023-05-18T03:29:39.172Z,1.50
2023-05-18T03:32:43.659Z,1.40
2023-05-18T03:35:48.588Z,1.00
2023-05-18T03:38:51.808Z,1.27
2023-05-18T03:41:54.804Z,1.35
2023-05-18T03:44:58.107Z,1.55
2023-05-18T03:48:02.571Z,1.17
2023-05-18T03:51:06.143Z,1.60
2023-05-18T03:54:09.173Z,1.00
2023-05-18T03:57:12.153Z,1.20
2023-05-18T04:00:16.122Z,1.25
2023-05-18T04:03:21.507Z,1.38
2023-05-18T04:06:26.488Z,2.00
2023-05-18T04:09:30.309Z,1.48
2023-05-18T04:12:33.412Z,1.42
2023-05-18T04:15:36.766Z,2.20
2023-05-18T04:18:44.391Z,1.80
2023-05-18T04:21:47.674Z,1.40
2023-05-18T04:24:55.074Z,1.13
2023-05-18T04:27:58.640Z,1.77
2023-05-18T04:31:02.361Z,1.55
2023-05-18T04:34:07.646Z,1.48
2023-05-18T04:37:10.960Z,1.23
2023-05-18T04:40:17.172Z,1.47
2023-05-18T04:43:22.228Z,1.58
2023-05-18T04:46:25.324Z,1.60
2023-05-18T04:49:31.967Z,1.52
2023-05-18T04:52:37.199Z,1.90
2023-05-18T04:55:40.384Z,1.75
2023-05-18T04:58:45.872Z,1.60
2023-05-18T05:01:49.035Z,1.65
2023-05-18T05:04:53.609Z,1.45
2023-05-18T05:07:57.437Z,1.40
2023-05-18T05:11:00.670Z,2.10
2023-05-18T05:14:03.740Z,1.85
2023-05-18T05:17:06.966Z,1.70
2023-05-18T05:20:12.374Z,2.00
2023-05-18T05:23:15.672Z,1.95
2023-05-18T05:26:19.174Z,1.90
2023-05-18T05:29:22.221Z,1.40
2023-05-18T05:32:25.482Z,1.58
2023-05-18T05:35:32.703Z,2.07
2023-05-18T05:38:36.917Z,1.45
2023-05-18T05:41:40.625Z,1.43
2023-05-18T05:44:43.815Z,2.30
2023-05-18T05:47:46.914Z,1.65
2023-05-18T05:50:51.890Z,1.35
2023-05-18T05:53:55.444Z,1.50
2023-05-18T05:56:58.636Z,1.95
2023-05-18T06:00:02.395Z,1.90
2023-05-18T06:03:05.682Z,1.88
2023-05-18T06:06:10.386Z,1.90
2023-05-18T06:09:13.710Z,1.63
2023-05-18T06:12:41.411Z,2.10
2023-05-18T06:15:44.566Z,2.05
2023-05-18T06:18:48.954Z,1.58
2023-05-18T06:21:52.356Z,1.55
2023-05-18T06:24:55.656Z,1.57
2023-05-18T06:28:00.174Z,1.27
2023-05-18T06:31:03.666Z,1.80
2023-05-18T06:34:06.726Z,1.40
2023-05-18T06:37:11.452Z,1.75
2023-05-18T06:40:14.539Z,1.75
2023-05-18T06:43:18.916Z,1.70
2023-05-18T06:46:22.357Z,2.10
2023-05-18T06:49:25.400Z,1.77
2023-05-18T06:52:28.475Z,1.70
2023-05-18T06:55:31.917Z,1.55
2023-05-18T06:58:36.538Z,1.60
2023-05-18T07:01:41.338Z,1.67
2023-05-18T07:04:44.662Z,1.35
2023-05-18T07:07:48.195Z,1.90
2023-05-18T07:10:51.473Z,1.77
2023-05-18T07:13:56.488Z,1.48
2023-05-18T07:16:59.888Z,1.48
2023-05-18T07:20:03.929Z,1.63
2023-05-18T07:23:07.212Z,1.20
2023-05-18T07:26:11.924Z,1.40
2023-05-18T07:29:16.649Z,2.00
2023-05-18T07:32:20.043Z,1.88
2023-05-18T07:35:24.118Z,1.50
2023-05-18T07:38:27.384Z,1.13
2023-05-18T07:41:31.306Z,2.07
2023-05-18T07:44:35.906Z,1.52
2023-05-18T07:47:39.048Z,1.35
2023-05-18T07:50:42.058Z,1.80
2023-05-18T07:53:46.035Z,1.90
2023-05-18T07:56:49.132Z,1.23
2023-05-18T07:59:53.627Z,1.42
2023-05-18T08:02:56.862Z,1.55
2023-05-18T08:18:28.829Z,1.65
2023-05-18T08:21:32.726Z,0.93
2023-05-18T08:24:35.785Z,1.95
2023-05-18T08:27:38.766Z,1.58
2023-05-18T08:30:41.782Z,1.60
2023-05-18T08:33:46.133Z,1.50
2023-05-18T08:36:52.456Z,1.80
2023-05-18T08:39:55.698Z,1.48
2023-05-18T08:43:04.891Z,1.20
2023-05-18T08:46:14.561Z,1.65
2023-05-18T08:49:20.692Z,1.60
2023-05-18T08:52:27.848Z,1.52
2023-05-18T08:55:34.649Z,1.38
2023-05-18T08:58:45.417Z,1.45
2023-05-18T09:01:48.479Z,1.65
2023-05-18T09:04:52.871Z,1.55
2023-05-18T09:07:56.127Z,1.77
2023-05-18T09:10:59.383Z,1.08
2023-05-18T09:14:03.066Z,2.17
2023-05-18T09:17:06.282Z,1.73
2023-05-18T09:20:11.099Z,1.42
2023-05-18T09:23:14.917Z,1.20
2023-05-18T09:26:18.060Z,1.75
2023-05-18T09:29:22.514Z,1.50
2023-05-18T09:32:26.914Z,1.65
2023-05-18T09:35:51.478Z,1.33
2023-05-18T09:38:54.794Z,2.08
2023-05-18T09:41:58.085Z,1.53
2023-05-18T09:45:01.624Z,2.40
2023-05-18T09:48:08.400Z,1.30
2023-05-18T09:51:16.777Z,1.13
2023-05-18T09:54:21.996Z,1.48
2023-05-18T09:57:26.846Z,1.77
2023-05-18T10:00:29.971Z,1.67
2023-05-18T10:03:36.750Z,1.85
2023-05-18T10:06:50.197Z,1.65
2023-05-18T10:10:03.425Z,1.83
2023-05-18T10:13:06.619Z,1.95
2023-05-18T10:16:09.670Z,1.85
2023-05-18T10:19:13.919Z,2.00
2023-05-18T10:22:20.329Z,1.85
2023-05-18T10:25:26.401Z,2.67
2023-05-18T10:28:42.662Z,1.90
2023-05-18T10:31:47.025Z,1.80
2023-05-18T10:34:52.647Z,1.90
2023-05-18T10:37:58.499Z,1.88
2023-05-18T10:41:02.157Z,2.03
2023-05-18T10:44:07.136Z,2.08
2023-05-18T10:47:12.510Z,1.60
2023-05-18T10:50:16.560Z,1.60
2023-05-18T10:53:22.259Z,2.17
2023-05-18T10:56:26.119Z,1.85
2023-05-18T10:59:30.684Z,2.03
2023-05-18T11:02:34.503Z,2.10
2023-05-18T11:05:40.016Z,1.75
2023-05-18T11:08:47.652Z,1.55
2023-05-18T11:11:56.123Z,1.85
2023-05-18T11:14:59.404Z,2.03
2023-05-18T11:18:14.366Z,1.63
2023-05-18T11:21:32.491Z,1.75
2023-05-18T11:24:37.944Z,1.83
2023-05-18T11:27:41.253Z,2.25
2023-05-18T11:30:51.913Z,2.27
2023-05-18T11:33:54.865Z,1.77
2023-05-18T11:36:57.782Z,1.98
2023-05-18T11:40:04.534Z,1.52
2023-05-18T11:43:20.621Z,1.92
2023-05-18T11:46:23.809Z,1.40
2023-05-18T11:49:28.377Z,1.45
2023-05-18T11:52:31.339Z,1.95
2023-05-18T11:55:39.302Z,2.13
2023-05-18T11:58:42.482Z,2.33
2023-05-18T12:01:46.052Z,1.42
2023-05-18T12:04:51.012Z,1.25
2023-05-18T12:07:54.614Z,2.17
2023-05-18T12:10:59.285Z,1.63
2023-05-18T12:14:02.428Z,1.88
2023-05-18T12:17:06.039Z,2.25
2023-05-18T12:20:10.154Z,1.58
2023-05-18T12:23:13.355Z,2.08
2023-05-18T12:26:20.493Z,1.70
2023-05-18T12:29:23.465Z,1.55
2023-05-18T12:32:26.602Z,1.20
2023-05-18T12:35:31.132Z,2.10
2023-05-18T12:38:34.666Z,1.98
2023-05-18T12:41:38.937Z,1.83
2023-05-18T12:44:43.770Z,1.80
2023-05-18T12:47:46.867Z,2.25
2023-05-18T12:50:51.683Z,1.75
2023-05-18T12:53:54.664Z,1.60
2023-05-18T12:57:02.036Z,2.08
2023-05-18T13:00:10.192Z,1.50
2023-05-18T13:03:15.922Z,1.85
2023-05-18T13:06:19.592Z,1.92
2023-05-18T13:09:22.751Z,1.38
2023-05-18T13:12:39.754Z,1.77
2023-05-18T13:15:43.853Z,2.20
2023-05-18T13:18:47.650Z,1.92
2023-05-18T13:21:56.960Z,2.00
2023-05-18T13:25:00.152Z,1.52
2023-05-18T13:28:05.145Z,1.83
2023-05-18T13:31:08.607Z,1.90
2023-05-18T13:37:15.698Z,1.67
2023-05-18T13:40:19.933Z,1.70
2023-05-18T13:46:27.041Z,1.90
2023-05-18T13:49:30.587Z,1.90
2023-05-18T13:52:33.532Z,1.40
2023-05-18T13:55:36.914Z,1.90
2023-05-18T13:58:41.982Z,1.53
2023-05-18T14:01:47.015Z,2.10
2023-05-18T14:04:50.092Z,1.80
2023-05-18T14:07:53.072Z,1.88
2023-05-18T14:10:56.352Z,1.73
2023-05-18T14:14:00.661Z,2.10
2023-05-18T14:17:04.093Z,1.63
2023-05-18T14:20:08.587Z,2.23
2023-05-18T14:23:11.552Z,2.13
2023-05-18T14:26:37.357Z,2.10
2023-05-18T14:29:40.685Z,1.75
2023-05-18T14:32:43.936Z,1.70
2023-05-18T14:35:46.920Z,2.20
2023-05-18T14:38:49.830Z,1.83
2023-05-18T14:41:54.420Z,1.73
2023-05-18T14:44:57.324Z,1.90
2023-05-18T14:48:01.754Z,1.90
2023-05-18T14:51:05.026Z,1.67
2023-05-18T14:54:08.004Z,1.30
2023-05-18T14:57:12.947Z,2.10
2023-05-18T15:00:16.586Z,1.95
2023-05-18T15:03:19.876Z,2.00
2023-05-18T15:06:22.957Z,2.00
2023-05-18T15:09:26.962Z,1.98
2023-05-18T15:15:34.478Z,1.93
2023-05-18T15:18:37.653Z,1.88
2023-05-18T15:21:40.871Z,1.50
2023-05-18T15:24:43.837Z,1.42
2023-05-18T15:27:49.338Z,2.00
2023-05-18T15:30:54.277Z,1.63
2023-05-18T15:33:57.655Z,1.65
2023-05-18T15:37:01.304Z,1.67
2023-05-18T15:40:05.484Z,1.83
2023-05-18T15:46:12.783Z,1.50
2023-05-18T15:49:15.797Z,1.65
2023-05-18T15:52:18.726Z,1.98
2023-05-18T15:55:21.680Z,1.67
2023-05-18T15:58:26.753Z,2.00
2023-05-18T16:01:30.023Z,1.50
2023-05-18T16:04:33.237Z,1.52
2023-05-18T16:07:37.276Z,2.30
2023-05-18T16:10:40.469Z,2.15
2023-05-18T16:13:44.830Z,1.70
2023-05-18T16:16:47.849Z,1.65
2023-05-18T16:19:50.853Z,1.80
2023-05-18T16:25:17.878Z,1.67
2023-05-18T16:28:20.834Z,1.92
2023-05-18T16:31:24.339Z,1.65
2023-05-18T16:34:27.582Z,1.85
2023-05-18T16:37:31.075Z,1.67
2023-05-18T16:40:35.376Z,1.65
2023-05-18T16:43:38.362Z,1.98
2023-05-18T16:46:42.260Z,1.90
2023-05-18T16:49:45.428Z,1.58
2023-05-18T16:52:48.750Z,1.60
2023-05-18T16:55:53.471Z,1.67
2023-05-18T16:58:56.724Z,2.67
2023-05-18T17:01:59.850Z,1.10
2023-05-18T17:05:02.900Z,1.48
2023-05-18T17:08:05.998Z,1.83
2023-05-18T17:11:10.514Z,1.63
2023-05-18T17:14:13.869Z,1.88
2023-05-18T17:17:17.331Z,1.70
2023-05-18T17:20:20.406Z,1.70
2023-05-18T17:23:23.328Z,1.50
2023-05-18T17:26:30.772Z,1.50
2023-05-18T17:29:33.833Z,1.65
2023-05-18T17:32:59.070Z,1.33
2023-05-18T17:36:02.054Z,1.52
2023-05-18T17:39:05.153Z,1.65
2023-05-18T17:42:08.265Z,2.05
2023-05-18T17:45:11.906Z,1.73
2023-05-18T17:48:16.217Z,1.80
2023-05-18T17:51:19.185Z,1.80
2023-05-18T17:54:22.601Z,1.60
2023-05-18T17:57:25.865Z,1.93
2023-05-18T18:00:29.290Z,1.80
2023-05-18T18:03:34.321Z,1.48
2023-05-18T18:06:37.464Z,1.77
2023-05-18T18:09:40.846Z,1.83
2023-05-18T18:12:43.852Z,1.40
2023-05-18T18:15:46.890Z,2.00
2023-05-18T18:18:51.810Z,1.88
2023-05-18T18:21:54.981Z,1.33
2023-05-18T18:24:57.987Z,1.67
2023-05-18T18:28:01.138Z,1.80
2023-05-18T18:31:04.557Z,1.95
2023-05-18T18:34:11.074Z,1.50
2023-05-18T18:37:14.005Z,1.30
2023-05-18T18:40:17.761Z,1.40
2023-05-18T18:43:20.707Z,1.30
2023-05-18T18:46:23.730Z,1.15
2023-05-18T18:49:28.585Z,1.73
2023-05-18T18:52:31.835Z,1.25
2023-05-18T18:55:34.797Z,1.83
2023-05-18T18:58:37.899Z,1.58
2023-05-18T19:01:40.959Z,1.70
2023-05-18T19:04:45.475Z,1.63
2023-05-18T19:07:49.197Z,2.03
2023-05-18T19:11:14.915Z,1.85
2023-05-18T19:14:17.849Z,2.10
2023-05-18T19:17:21.466Z,2.45
2023-05-18T19:20:24.410Z,2.63
2023-05-18T19:23:27.527Z,2.50
2023-05-18T19:26:32.451Z,2.20
2023-05-18T19:29:37.664Z,2.30
2023-05-18T19:32:41.158Z,2.15
2023-05-18T19:35:44.182Z,1.45
2023-05-18T19:38:48.033Z,1.42
2023-05-18T19:41:52.393Z,2.17
2023-05-18T19:44:55.393Z,2.33
2023-05-18T19:47:58.676Z,1.58
2023-05-18T19:51:02.553Z,2.47
2023-05-18T19:54:06.082Z,2.17
2023-05-18T19:57:10.445Z,2.10
2023-05-18T20:00:13.980Z,2.30
2023-05-18T20:03:16.946Z,1.90
2023-05-18T20:06:21.451Z,2.47
2023-05-18T20:09:24.493Z,2.05
2023-05-18T20:12:28.765Z,1.75
2023-05-18T20:17:16.737Z,1.63
2023-05-18T20:20:20.506Z,1.80
2023-05-18T20:23:23.522Z,2.17
2023-05-18T20:26:30.496Z,2.00
2023-05-18T20:29:34.929Z,2.10
2023-05-18T20:32:39.479Z,1.85
2023-05-18T20:35:43.930Z,2.33
2023-05-18T20:40:02.982Z,1.95
2023-05-18T20:43:09.762Z,1.65
2023-05-18T20:46:13.900Z,2.35
2023-05-18T20:52:20.100Z,2.30
2023-05-18T20:55:24.617Z,1.48
2023-05-18T20:58:28.935Z,1.88
2023-05-18T21:01:38.716Z,2.00
2023-05-18T21:04:42.074Z,2.40
2023-05-18T21:07:45.154Z,1.80
2023-05-18T21:10:49.497Z,1.77
2023-05-18T21:13:52.614Z,2.00
2023-05-18T21:16:55.643Z,1.95
2023-05-18T21:19:59.055Z,1.77
2023-05-18T21:23:01.981Z,1.90
2023-05-18T21:26:06.559Z,1.83
2023-05-18T21:29:10.697Z,2.30
2023-05-18T21:32:13.889Z,1.98
2023-05-18T21:35:17.095Z,2.37
2023-05-18T21:38:20.052Z,2.42
2023-05-18T21:41:24.406Z,2.03
2023-05-18T21:44:27.469Z,2.42
2023-05-18T21:47:30.559Z,2.05
2023-05-18T21:50:34.422Z,1.98
2023-05-18T21:53:38.004Z,1.95
2023-05-18T21:56:42.957Z,2.25
2023-05-18T21:59:46.560Z,2.50
2023-05-18T22:02:49.677Z,2.73
2023-05-18T22:08:27.936Z,3.15
2023-05-18T22:11:30.964Z,2.60
2023-05-18T22:14:33.948Z,2.85
2023-05-18T22:17:37.422Z,3.63
2023-05-18T22:20:41.331Z,2.73
2023-05-18T22:23:45.929Z,3.03
2023-05-18T22:26:48.859Z,2.55
2023-05-18T22:29:51.843Z,2.30
2023-05-18T22:32:54.836Z,2.50
2023-05-18T22:35:57.839Z,2.25
2023-05-18T22:39:02.282Z,2.53
2023-05-18T22:42:05.722Z,2.42
2023-05-18T22:45:11.465Z,3.10
2023-05-18T22:48:14.677Z,2.30
2023-05-18T22:51:18.593Z,2.70
2023-05-18T22:54:22.827Z,2.17
2023-05-18T23:00:28.967Z,1.88
2023-05-18T23:03:31.929Z,2.47
2023-05-18T23:06:34.964Z,2.80
2023-05-18T23:09:39.729Z,2.85
2023-05-18T23:12:42.666Z,2.65
2023-05-18T23:15:47.829Z,2.95
2023-05-18T23:18:53.442Z,2.72
2023-05-18T23:21:56.935Z,3.15
2023-05-18T23:25:01.485Z,2.97
2023-05-18T23:28:04.724Z,2.85
2023-05-18T23:31:08.039Z,2.55
2023-05-18T23:34:11.456Z,2.83
2023-05-18T23:37:18.473Z,2.77
2023-05-18T23:40:23.165Z,3.22
2023-05-18T23:43:26.587Z,3.33
2023-05-18T23:46:30.835Z,3.43
2023-05-18T23:52:37.504Z,3.78
2023-05-18T23:55:42.977Z,3.47
2023-05-18T23:58:47.530Z,3.63
